Time;durP1;ratioP1;P1;durP2;ratioP2;P2;SDS_P1;SDS_P2;PMS_P1;PMS_P2;Temp;Humidity;BMP_temperature;BMP_pressure;BME280_temperature;BME280_humidity;BME280_pressure;Samples;Min_cycle;Max_cycle;Signal;HPM_P1;HPM_P2
2022/03/17 00:00:02;;;;;;;6.27;5.67;;;19.40;40.40;;;;;;5099534;28;20480;-85
2022/03/17 00:02:30;;;;;;;6.27;5.67;;;19.40;40.30;;;;;;5100783;28;20468;-85
2022/03/17 00:04:58;;;;;;;7.17;5.70;;;19.40;40.40;;;;;;5098901;28;20514;-85
2022/03/17 00:07:26;;;;;;;7.83;5.50;;;19.40;40.40;;;;;;5099973;28;20494;-85
2022/03/17 00:09:54;;;;;;;5.40;4.90;;;19.40;40.40;;;;;;5100530;28;21668;-85
2022/03/17 00:12:24;;;;;;;5.97;5.37;;;19.40;40.50;;;;;;5098099;28;20461;-85
2022/03/17 00:14:55;;;;;;;6.70;6.03;;;19.40;40.40;;;;;;5100664;28;20480;-85
2022/03/17 00:17:23;;;;;;;7.30;5.33;;;19.40;40.60;;;;;;5098940;28;20452;-84
2022/03/17 00:19:51;;;;;;;6.47;5.30;;;19.40;40.50;;;;;;5101290;28;20465;-85
2022/03/17 00:22:19;;;;;;;6.57;5.53;;;19.30;40.40;;;;;;5100752;28;20464;-85
2022/03/17 00:24:47;;;;;;;6.27;5.30;;;19.30;40.40;;;;;;5101343;28;20480;-85
2022/03/17 00:27:16;;;;;;;7.77;5.90;;;19.30;40.50;;;;;;5099237;28;20506;-85
2022/03/17 00:29:46;;;;;;;7.47;5.37;;;19.30;40.40;;;;;;5099093;28;20437;-85
2022/03/17 00:32:14;;;;;;;7.00;6.17;;;19.30;40.50;;;;;;5096339;28;20448;-84
2022/03/17 00:37:24;;;;;;;6.90;6.20;;;19.30;40.60;;;;;;5097620;28;20474;-85
2022/03/17 00:39:52;;;;;;;6.83;5.60;;;19.30;40.50;;;;;;5099258;28;20476;-85
2022/03/17 00:42:21;;;;;;;7.53;5.40;;;19.30;40.60;;;;;;5097449;28;20519;-85
2022/03/17 00:44:52;;;;;;;10.13;5.70;;;19.30;40.50;;;;;;5100061;28;20461;-87
2022/03/17 00:47:20;;;;;;;9.00;6.30;;;19.30;40.60;;;;;;5101569;28;20440;-86
2022/03/17 00:49:49;;;;;;;8.07;5.97;;;19.30;40.60;;;;;;5097233;28;20449;-85
2022/03/17 00:52:20;;;;;;;6.87;5.80;;;19.20;40.40;;;;;;5102474;28;20449;-87
2022/03/17 00:54:48;;;;;;;6.30;5.70;;;19.20;40.50;;;;;;5108273;28;20460;-87
2022/03/17 00:57:16;;;;;;;6.23;5.63;;;19.20;40.40;;;;;;5107759;28;20444;-87
2022/03/17 00:59:44;;;;;;;12.13;6.23;;;19.20;40.50;;;;;;5113590;28;20443;-86
2022/03/17 01:02:13;;;;;;;7.90;6.30;;;19.20;40.40;;;;;;5110526;28;20448;-86
2022/03/17 01:04:42;;;;;;;7.50;5.90;;;19.20;40.50;;;;;;5107071;28;20468;-87
2022/03/17 01:07:10;;;;;;;8.10;6.17;;;19.20;40.50;;;;;;5104170;28;20559;-87
2022/03/17 01:09:38;;;;;;;8.07;5.90;;;19.20;40.50;;;;;;5107903;28;20444;-87
2022/03/17 01:12:06;;;;;;;7.73;6.07;;;19.10;40.40;;;;;;5108411;28;20455;-87
2022/03/17 01:14:34;;;;;;;8.20;6.53;;;19.10;40.40;;;;;;5108567;28;20460;-86
2022/03/17 01:17:02;;;;;;;6.93;6.13;;;19.10;40.50;;;;;;5106954;28;20425;-86
2022/03/17 01:19:31;;;;;;;8.63;7.03;;;19.20;40.50;;;;;;5104256;28;20452;-86
2022/03/17 01:21:59;;;;;;;12.03;5.53;;;19.10;40.50;;;;;;5101317;28;20453;-86
2022/03/17 01:24:27;;;;;;;7.10;5.77;;;19.10;40.50;;;;;;5103610;28;20476;-87
2022/03/17 01:26:55;;;;;;;6.90;6.10;;;19.10;40.50;;;;;;5106142;28;20444;-86
2022/03/17 01:29:23;;;;;;;7.10;6.40;;;19.10;40.60;;;;;;5106101;28;20468;-86
2022/03/17 01:31:51;;;;;;;7.63;5.40;;;19.10;40.60;;;;;;5105421;28;20486;-86
2022/03/17 01:34:19;;;;;;;6.53;5.93;;;19.10;40.60;;;;;;5105947;28;20453;-87
2022/03/17 01:36:49;;;;;;;7.10;6.40;;;19.10;40.60;;;;;;5100916;28;20928;-86
2022/03/17 01:39:17;;;;;;;8.00;6.87;;;19.10;40.60;;;;;;5107680;28;20490;-86
2022/03/17 01:41:44;;;;;;;7.57;6.10;;;19.10;40.60;;;;;;5107837;28;20460;-86
2022/03/17 01:44:12;;;;;;;9.77;6.10;;;19.10;40.60;;;;;;5106999;28;20472;-87
2022/03/17 01:49:26;;;;;;;8.10;5.90;;;19.00;40.60;;;;;;5101428;28;20433;-84
2022/03/17 01:51:55;;;;;;;6.70;5.67;;;19.00;40.60;;;;;;5100823;28;20475;-84
2022/03/17 01:54:24;;;;;;;9.27;6.40;;;19.00;40.60;;;;;;5100869;28;20466;-84
2022/03/17 01:57:05;;;;;;;6.77;6.13;;;19.00;40.70;;;;;;5099278;28;20423;-84
2022/03/17 01:59:33;;;;;;;7.73;6.13;;;19.00;40.70;;;;;;5101766;28;20509;-84
2022/03/17 02:02:02;;;;;;;8.10;6.67;;;19.00;40.60;;;;;;5096507;28;20497;-84
2022/03/17 02:04:31;;;;;;;9.83;6.27;;;19.00;40.70;;;;;;5101124;28;20502;-84
2022/03/17 02:07:01;;;;;;;8.63;6.77;;;19.00;40.60;;;;;;5102111;28;20440;-84
2022/03/17 02:09:29;;;;;;;8.20;6.57;;;18.90;40.50;;;;;;5100562;28;20452;-84
2022/03/17 02:14:49;;;;;;;10.60;6.83;;;18.90;40.60;;;;;;5093523;28;20492;-84
2022/03/17 02:17:17;;;;;;;7.50;6.73;;;18.90;40.70;;;;;;5101790;28;20471;-84
2022/03/17 02:19:45;;;;;;;7.67;6.50;;;18.90;40.60;;;;;;5102016;28;20486;-84
2022/03/17 02:22:16;;;;;;;7.40;6.67;;;18.90;40.70;;;;;;5103241;28;20464;-85
2022/03/17 02:27:33;;;;;;;9.53;6.53;;;18.90;40.60;;;;;;5105847;28;20488;-85
2022/03/17 02:30:03;;;;;;;9.87;5.93;;;18.80;40.70;;;;;;5104790;28;20425;-84
2022/03/17 02:32:31;;;;;;;6.77;6.07;;;18.90;40.80;;;;;;5093552;28;20449;-85
2022/03/17 02:35:04;;;;;;;8.00;6.53;;;18.80;40.60;;;;;;5103822;28;20452;-85
2022/03/17 02:37:32;;;;;;;7.60;6.30;;;18.90;40.70;;;;;;5105050;28;20514;-84
2022/03/17 02:40:01;;;;;;;8.40;6.43;;;18.90;40.80;;;;;;5104073;28;20852;-85
2022/03/17 02:42:30;;;;;;;6.97;6.20;;;18.90;40.80;;;;;;5103485;28;20472;-85
2022/03/17 02:44:59;;;;;;;7.37;6.33;;;18.90;40.70;;;;;;5104120;28;20514;-85
2022/03/17 02:47:27;;;;;;;6.57;5.40;;;18.80;40.80;;;;;;5102070;28;20463;-85
2022/03/17 02:49:55;;;;;;;7.80;6.20;;;18.80;40.80;;;;;;5104147;28;20433;-84
2022/03/17 02:52:23;;;;;;;7.90;6.40;;;18.80;40.80;;;;;;5103717;28;20463;-85
2022/03/17 02:54:51;;;;;;;6.80;6.10;;;18.80;40.90;;;;;;5102657;28;20506;-85
2022/03/17 02:57:21;;;;;;;6.90;6.20;;;18.80;40.80;;;;;;5103450;28;20526;-84
2022/03/17 02:59:51;;;;;;;7.27;6.30;;;18.80;40.90;;;;;;5103789;28;20533;-85
2022/03/17 03:02:19;;;;;;;6.77;6.10;;;18.80;40.80;;;;;;5097127;28;20457;-84
2022/03/17 03:04:48;;;;;;;7.83;6.20;;;18.80;40.80;;;;;;5103039;28;20472;-85
2022/03/17 03:07:16;;;;;;;7.43;6.60;;;18.80;40.70;;;;;;5102854;28;20468;-85
2022/03/17 03:09:43;;;;;;;8.10;6.47;;;18.80;40.70;;;;;;5103384;28;20440;-85
2022/03/17 03:12:11;;;;;;;8.23;6.57;;;18.70;40.70;;;;;;5097929;28;20509;-84
2022/03/17 03:14:41;;;;;;;10.43;6.90;;;18.80;40.80;;;;;;5102510;28;20480;-85
2022/03/17 03:17:08;;;;;;;8.83;6.53;;;18.80;40.70;;;;;;5101632;28;20432;-84
2022/03/17 03:19:36;;;;;;;8.03;7.23;;;18.80;40.60;;;;;;5097601;28;20456;-85
2022/03/17 03:22:05;;;;;;;8.07;7.03;;;18.80;40.60;;;;;;5102281;28;20467;-85
2022/03/17 03:24:33;;;;;;;8.33;7.30;;;18.80;40.70;;;;;;5102167;28;20503;-84
2022/03/17 03:27:01;;;;;;;10.40;7.27;;;18.70;40.60;;;;;;5103506;28;20448;-84
2022/03/17 03:29:29;;;;;;;7.57;6.40;;;18.70;40.60;;;;;;5102781;28;20511;-85
2022/03/17 03:31:59;;;;;;;8.37;7.50;;;18.70;40.60;;;;;;5103478;28;20432;-84
2022/03/17 03:34:27;;;;;;;8.50;7.60;;;18.70;40.50;;;;;;5102721;28;20473;-85
2022/03/17 03:39:40;;;;;;;9.30;7.47;;;18.70;40.40;;;;;;5094101;28;20444;-85
2022/03/17 03:42:09;;;;;;;10.73;8.37;;;18.70;40.40;;;;;;5103268;28;20465;-85
2022/03/17 03:44:37;;;;;;;12.97;8.33;;;18.60;40.40;;;;;;5103514;28;20500;-85
2022/03/17 03:47:07;;;;;;;8.70;7.80;;;18.70;40.40;;;;;;5103411;28;20444;-85
2022/03/17 03:49:35;;;;;;;9.67;8.10;;;18.70;40.30;;;;;;5104457;28;20480;-85
2022/03/17 03:52:03;;;;;;;11.03;7.90;;;18.60;40.30;;;;;;5103168;28;20444;-85
2022/03/17 03:54:31;;;;;;;9.97;8.57;;;18.60;40.30;;;;;;5104987;28;20457;-85
2022/03/17 03:56:58;;;;;;;10.17;8.40;;;18.70;40.40;;;;;;5106347;28;20433;-84
2022/03/17 03:59:28;;;;;;;9.93;8.37;;;18.70;40.20;;;;;;5105883;28;20481;-84
2022/03/17 04:01:56;;;;;;;11.70;9.07;;;18.60;40.90;;;;;;5106733;28;20429;-84
2022/03/17 04:04:26;;;;;;;10.57;8.60;;;18.60;40.10;;;;;;5107474;28;20472;-84
2022/03/17 04:06:55;;;;;;;11.57;8.53;;;18.60;40.20;;;;;;5107770;28;20449;-84
2022/03/17 04:09:24;;;;;;;10.53;8.50;;;18.60;40.20;;;;;;5098785;28;20448;-84
2022/03/17 04:11:52;;;;;;;12.23;8.00;;;18.60;40.30;;;;;;5106546;28;20433;-84
2022/03/17 04:14:20;;;;;;;10.83;9.00;;;18.60;40.90;;;;;;5105820;28;20467;-86
2022/03/17 04:16:48;;;;;;;12.27;8.87;;;18.60;40.20;;;;;;5107050;28;20429;-86
2022/03/17 04:19:16;;;;;;;11.87;8.50;;;18.60;40.20;;;;;;5108248;28;20440;-86
2022/03/17 04:21:46;;;;;;;13.57;9.00;;;18.60;40.20;;;;;;5107235;28;20437;-87
2022/03/17 04:24:14;;;;;;;12.37;9.87;;;18.60;40.20;;;;;;5103698;28;20445;-86
2022/03/17 04:26:44;;;;;;;10.93;9.20;;;18.60;40.10;;;;;;5102649;28;20445;-87
2022/03/17 04:29:12;;;;;;;11.20;9.03;;;18.60;40.10;;;;;;5106434;28;20459;-86
2022/03/17 04:31:42;;;;;;;11.23;8.90;;;18.60;40.10;;;;;;5107574;28;20437;-86
2022/03/17 04:34:10;;;;;;;9.53;8.40;;;18.60;40.00;;;;;;5107003;28;20452;-87
2022/03/17 04:36:38;;;;;;;13.10;9.90;;;18.60;40.00;;;;;;5107173;28;20441;-86
2022/03/17 04:39:10;;;;;;;11.50;8.60;;;18.50;39.90;;;;;;5106796;28;20444;-86
2022/03/17 04:41:39;;;;;;;12.90;9.17;;;18.60;40.10;;;;;;5103531;28;20467;-86
2022/03/17 04:44:07;;;;;;;11.97;8.67;;;18.60;40.00;;;;;;5106008;28;20445;-86
2022/03/17 04:46:35;;;;;;;11.50;9.17;;;18.60;40.00;;;;;;5098952;28;20470;-86
2022/03/17 04:49:03;;;;;;;11.40;9.00;;;18.60;40.00;;;;;;5106237;28;20441;-87
2022/03/17 04:51:32;;;;;;;12.33;9.33;;;18.50;39.80;;;;;;5105334;28;20471;-86
2022/03/17 04:54:00;;;;;;;11.87;9.40;;;18.50;39.80;;;;;;5105060;28;20472;-86
2022/03/17 04:56:29;;;;;;;14.00;10.23;;;18.50;39.80;;;;;;5106298;28;20447;-86
2022/03/17 04:58:57;;;;;;;13.50;9.40;;;18.50;39.90;;;;;;5105700;28;20433;-87
2022/03/17 05:01:25;;;;;;;12.87;10.13;;;18.50;40.40;;;;;;5102322;28;20472;-87
2022/03/17 05:03:53;;;;;;;12.73;10.17;;;18.50;39.80;;;;;;5103784;28;20465;-86
2022/03/17 05:06:21;;;;;;;11.30;9.83;;;18.50;39.80;;;;;;5104224;28;20488;-87
2022/03/17 05:08:49;;;;;;;13.90;10.07;;;18.50;39.80;;;;;;5104586;28;20491;-86
2022/03/17 05:11:18;;;;;;;13.00;9.43;;;18.50;39.80;;;;;;5104696;28;20464;-86
2022/03/17 05:13:48;;;;;;;11.93;9.70;;;18.50;39.70;;;;;;5105363;28;20464;-86
2022/03/17 05:16:18;;;;;;;11.80;9.93;;;18.50;39.80;;;;;;5105332;28;20447;-87
2022/03/17 05:18:47;;;;;;;15.33;9.03;;;18.50;39.80;;;;;;5099514;28;20806;-86
2022/03/17 05:21:15;;;;;;;12.20;10.57;;;18.50;39.70;;;;;;5105784;28;20437;-86
2022/03/17 05:23:43;;;;;;;11.50;9.40;;;18.50;39.80;;;;;;5103282;28;20492;-86
2022/03/17 05:26:11;;;;;;;14.97;9.50;;;18.50;39.70;;;;;;5103249;28;20523;-86
2022/03/17 05:28:39;;;;;;;12.47;9.90;;;18.50;39.80;;;;;;5103841;28;20537;-86
2022/03/17 05:31:09;;;;;;;13.23;10.73;;;18.50;39.70;;;;;;5105148;28;20445;-86
2022/03/17 05:33:37;;;;;;;19.37;10.70;;;18.50;39.70;;;;;;5109349;28;20453;-86
2022/03/17 05:36:06;;;;;;;14.93;10.83;;;18.50;39.70;;;;;;5109558;28;20448;-86
2022/03/17 05:38:34;;;;;;;12.37;9.90;;;18.50;39.60;;;;;;5110873;28;20444;-87
2022/03/17 05:41:02;;;;;;;11.70;9.80;;;18.50;39.50;;;;;;5109669;28;20445;-87
2022/03/17 05:43:29;;;;;;;13.03;10.87;;;18.50;39.70;;;;;;5107277;28;20475;-87
2022/03/17 05:45:58;;;;;;;13.27;9.53;;;18.50;39.60;;;;;;5109241;28;20465;-87
2022/03/17 05:48:27;;;;;;;12.63;10.77;;;18.50;39.70;;;;;;5109451;28;20437;-86
2022/03/17 05:50:55;;;;;;;12.77;9.80;;;18.40;39.70;;;;;;5106344;28;20499;-87
2022/03/17 05:53:23;;;;;;;12.63;9.97;;;18.40;39.70;;;;;;5107471;28;20476;-86
2022/03/17 05:55:54;;;;;;;11.90;9.93;;;18.40;39.70;;;;;;5110312;28;20440;-87
2022/03/17 05:58:22;;;;;;;11.40;9.30;;;18.40;39.70;;;;;;5111093;28;20450;-88
2022/03/17 06:00:50;;;;;;;13.30;11.00;;;18.40;39.70;;;;;;5111442;28;20440;-87
2022/03/17 06:03:18;;;;;;;14.30;10.40;;;18.40;39.70;;;;;;5105574;28;20457;-88
2022/03/17 06:05:48;;;;;;;13.83;10.90;;;18.40;39.70;;;;;;5104375;28;20468;-87
2022/03/17 06:08:17;;;;;;;16.67;11.23;;;18.40;39.70;;;;;;5106865;28;20440;-88
2022/03/17 06:10:45;;;;;;;14.47;11.00;;;18.30;39.70;;;;;;5095811;28;20448;-87
2022/03/17 06:13:13;;;;;;;16.20;10.63;;;18.30;40.00;;;;;;5103364;28;20496;-87
2022/03/17 06:15:40;;;;;;;16.20;12.03;;;18.30;40.10;;;;;;5104392;28;20441;-86
2022/03/17 06:18:08;;;;;;;16.90;11.30;;;18.30;40.30;;;;;;5108470;28;20445;-86
2022/03/17 06:20:37;;;;;;;15.83;11.27;;;18.30;40.30;;;;;;5110707;28;20449;-87
2022/03/17 06:23:07;;;;;;;13.57;10.33;;;18.20;40.30;;;;;;5109767;28;20452;-88
2022/03/17 06:25:37;;;;;;;14.40;10.97;;;18.20;40.40;;;;;;5103922;28;20465;-88
2022/03/17 06:28:07;;;;;;;17.57;11.53;;;18.20;40.50;;;;;;5108222;28;20443;-86
2022/03/17 06:30:37;;;;;;;13.70;11.10;;;18.20;40.60;;;;;;5108086;28;20466;-87
2022/03/17 06:33:06;;;;;;;17.80;11.90;;;18.10;40.60;;;;;;5106679;28;20467;-87
2022/03/17 06:35:35;;;;;;;15.67;11.93;;;18.10;40.60;;;;;;5106596;28;20914;-88
2022/03/17 06:38:04;;;;;;;15.77;11.50;;;18.10;40.80;;;;;;5108544;28;20463;-86
2022/03/17 06:40:33;;;;;;;14.17;11.37;;;18.10;40.90;;;;;;5109482;28;20437;-88
2022/03/17 06:43:01;;;;;;;14.67;11.70;;;18.10;40.90;;;;;;5107740;28;20494;-86
2022/03/17 06:45:30;;;;;;;15.83;11.63;;;18.10;41.10;;;;;;5107886;28;20447;-87
2022/03/17 06:47:58;;;;;;;17.47;12.67;;;18.00;41.90;;;;;;5105780;28;20440;-87
2022/03/17 06:50:26;;;;;;;15.70;12.47;;;18.00;41.40;;;;;;5104924;28;20444;-88
2022/03/17 06:52:54;;;;;;;15.53;12.00;;;18.00;41.60;;;;;;5105142;28;20475;-88
2022/03/17 06:55:23;;;;;;;17.20;12.93;;;17.90;41.50;;;;;;5105908;28;20425;-87
2022/03/17 06:57:52;;;;;;;17.07;13.10;;;17.90;41.50;;;;;;5105058;28;20448;-88
2022/03/17 07:00:21;;;;;;;18.70;12.90;;;17.90;41.70;;;;;;5106616;28;20440;-87
2022/03/17 07:02:49;;;;;;;18.77;13.27;;;17.90;41.80;;;;;;5105996;28;20444;-87
2022/03/17 07:05:17;;;;;;;19.87;13.80;;;17.90;42.00;;;;;;5104837;28;20444;-88
2022/03/17 07:07:45;;;;;;;17.87;12.80;;;17.90;42.10;;;;;;5105085;28;20477;-86
2022/03/17 07:10:29;;;;;;;15.53;11.77;;;17.90;42.20;;;;;;5105557;28;20441;-85
2022/03/17 07:12:59;;;;;;;16.90;12.93;;;17.80;42.20;;;;;;5105445;28;20447;-86
2022/03/17 07:15:28;;;;;;;14.40;11.90;;;17.80;42.30;;;;;;5103992;28;20456;-87
2022/03/17 07:17:56;;;;;;;17.37;12.07;;;17.80;42.30;;;;;;5109106;28;20433;-86
2022/03/17 07:20:24;;;;;;;16.40;11.80;;;17.80;42.40;;;;;;5106653;28;20534;-85
2022/03/17 07:22:52;;;;;;;20.03;12.53;;;17.80;42.40;;;;;;5107053;28;20456;-85
2022/03/17 07:25:20;;;;;;;15.30;12.40;;;17.80;42.60;;;;;;5106283;28;20456;-86
2022/03/17 07:27:49;;;;;;;17.37;13.30;;;17.80;43.20;;;;;;5108825;28;20514;-87
2022/03/17 07:30:19;;;;;;;20.97;13.20;;;17.80;42.60;;;;;;5110766;28;20502;-86
2022/03/17 07:32:48;;;;;;;16.10;12.90;;;17.80;42.80;;;;;;5110014;28;20440;-86
2022/03/17 07:35:16;;;;;;;16.87;12.50;;;17.80;42.90;;;;;;5107269;28;20483;-85
2022/03/17 07:37:44;;;;;;;17.63;13.20;;;17.80;42.90;;;;;;5099883;28;20792;-87
2022/03/17 07:40:13;;;;;;;17.23;12.83;;;17.80;43.00;;;;;;5100235;28;20475;-87
2022/03/17 07:42:41;;;;;;;16.03;11.83;;;17.80;43.00;;;;;;5102045;28;20440;-86
2022/03/17 07:45:11;;;;;;;15.80;12.00;;;17.80;43.10;;;;;;5100756;28;20445;-86
2022/03/17 07:47:46;;;;;;;16.03;12.20;;;17.80;43.20;;;;;;5098793;28;21034;-86
2022/03/17 07:50:14;;;;;;;16.10;11.40;;;17.80;43.30;;;;;;5096842;28;20489;-86
2022/03/17 07:52:42;;;;;;;17.90;12.87;;;17.80;43.20;;;;;;5080713;28;20445;-86
2022/03/17 07:55:10;;;;;;;15.70;11.20;;;17.80;43.40;;;;;;5079610;28;20479;-86
2022/03/17 07:57:38;;;;;;;18.27;12.27;;;17.80;43.30;;;;;;5078947;28;20441;-87
2022/03/17 08:00:08;;;;;;;18.67;12.27;;;17.80;43.40;;;;;;5079820;28;20465;-86
2022/03/17 08:02:37;;;;;;;14.43;11.00;;;17.80;43.40;;;;;;5079050;28;20441;-87
2022/03/17 08:08:03;;;;;;;16.03;11.13;;;17.80;43.50;;;;;;5099719;28;20555;-86
2022/03/17 08:10:31;;;;;;;14.60;10.87;;;17.80;43.40;;;;;;5103905;28;20524;-86
2022/03/17 08:13:02;;;;;;;12.83;10.77;;;17.80;43.40;;;;;;5107642;28;20433;-86
2022/03/17 08:15:30;;;;;;;12.33;10.17;;;17.80;43.40;;;;;;5109357;28;20445;-85
2022/03/17 08:17:58;;;;;;;11.10;9.53;;;17.80;43.40;;;;;;5110642;28;20441;-86
2022/03/17 08:20:27;;;;;;;11.37;9.30;;;17.80;43.50;;;;;;5111323;28;20472;-86
2022/03/17 08:22:57;;;;;;;11.83;8.97;;;17.70;43.40;;;;;;5107142;28;20474;-87
2022/03/17 08:25:26;;;;;;;11.80;9.30;;;17.80;43.60;;;;;;5116276;28;20437;-88
2022/03/17 08:27:55;;;;;;;9.80;8.80;;;17.70;43.50;;;;;;5113355;28;20482;-84
2022/03/17 08:30:23;;;;;;;10.33;9.00;;;17.70;43.60;;;;;;5112532;28;20449;-84
2022/03/17 08:32:51;;;;;;;11.13;8.30;;;17.80;43.70;;;;;;5112796;28;20437;-84
2022/03/17 08:35:19;;;;;;;9.63;8.30;;;17.70;43.60;;;;;;5112644;28;20441;-84
2022/03/17 08:37:48;;;;;;;10.70;8.60;;;17.80;43.60;;;;;;5112597;28;20439;-84
2022/03/17 08:40:16;;;;;;;9.67;7.77;;;17.70;43.70;;;;;;5104587;28;20493;-84
2022/03/17 08:42:45;;;;;;;9.07;7.77;;;17.80;43.70;;;;;;5112946;28;20441;-84
2022/03/17 08:50:44;;;;;;;9.80;7.47;;;17.80;43.70;;;;;;5093693;28;20452;-84
2022/03/17 08:53:14;;;;;;;8.87;7.20;;;17.80;43.70;;;;;;5093438;28;20511;-83
2022/03/17 08:55:41;;;;;;;7.50;6.70;;;17.80;43.60;;;;;;5093598;28;20469;-84
2022/03/17 08:58:10;;;;;;;9.30;7.50;;;17.80;43.60;;;;;;5088960;28;20534;-84
2022/03/17 09:00:40;;;;;;;8.17;6.87;;;17.80;43.70;;;;;;5093233;28;20534;-84
2022/03/17 09:03:08;;;;;;;7.50;6.80;;;17.80;43.70;;;;;;5094231;28;20468;-84
2022/03/17 09:05:36;;;;;;;7.43;6.73;;;17.80;43.80;;;;;;5093914;28;20425;-84
2022/03/17 09:08:06;;;;;;;6.77;6.17;;;17.80;43.80;;;;;;5093205;28;20555;-84
2022/03/17 09:10:43;;;;;;;6.80;6.03;;;17.80;43.70;;;;;;5093740;28;20471;-84
2022/03/17 09:13:13;;;;;;;7.27;6.40;;;17.90;43.80;;;;;;5094094;28;20486;-84
2022/03/17 09:15:42;;;;;;;7.93;5.90;;;17.80;43.70;;;;;;5093930;28;20429;-84
2022/03/17 09:18:10;;;;;;;8.13;5.90;;;17.90;43.70;;;;;;5093829;28;20476;-84
2022/03/17 09:20:39;;;;;;;7.50;6.40;;;17.90;43.90;;;;;;5093533;28;20475;-84
2022/03/17 09:23:07;;;;;;;8.70;6.20;;;17.90;43.70;;;;;;5093709;28;20506;-85
2022/03/17 09:25:35;;;;;;;6.87;6.00;;;17.90;43.60;;;;;;5094368;28;20448;-84
2022/03/17 09:28:05;;;;;;;5.97;5.37;;;17.90;43.60;;;;;;5094813;28;20499;-84
2022/03/17 09:30:33;;;;;;;5.67;5.17;;;18.00;43.80;;;;;;5096639;28;20475;-84
2022/03/17 09:33:03;;;;;;;8.90;5.80;;;18.00;43.60;;;;;;5094180;28;20475;-84
2022/03/17 09:35:30;;;;;;;8.13;6.13;;;18.00;43.50;;;;;;5096681;28;20448;-84
2022/03/17 09:37:58;;;;;;;8.03;5.60;;;18.00;43.40;;;;;;5096421;28;20474;-84
2022/03/17 09:40:26;;;;;;;5.83;5.23;;;18.00;43.50;;;;;;5097577;28;20451;-84
2022/03/17 09:43:18;;;;;;;5.63;5.17;;;18.10;43.60;;;;;;5101412;28;20483;-84
2022/03/17 09:45:45;;;;;;;7.37;5.97;;;18.10;43.50;;;;;;5100663;28;20436;-84
2022/03/17 09:48:15;;;;;;;5.50;5.00;;;18.00;43.50;;;;;;5101378;28;20484;-84
2022/03/17 09:50:43;;;;;;;5.67;5.17;;;18.00;43.60;;;;;;5100974;28;20440;-84
2022/03/17 09:53:11;;;;;;;5.63;5.13;;;18.00;43.70;;;;;;5100247;28;20468;-84
2022/03/17 09:55:41;;;;;;;6.63;4.77;;;18.00;43.70;;;;;;5100261;28;20898;-84
2022/03/17 09:58:08;;;;;;;7.63;5.20;;;18.00;43.60;;;;;;5100927;28;20478;-84
2022/03/17 10:00:48;;;;;;;4.93;4.53;;;18.00;44.40;;;;;;5100717;28;20464;-84
2022/03/17 10:03:18;;;;;;;5.60;4.57;;;18.00;43.80;;;;;;5093139;28;20477;-84
2022/03/17 10:05:47;;;;;;;4.77;4.37;;;18.00;43.70;;;;;;5100314;28;20432;-84
2022/03/17 10:08:21;;;;;;;5.33;4.83;;;18.00;43.70;;;;;;5099788;28;20473;-84
2022/03/17 10:10:49;;;;;;;6.80;4.90;;;18.10;43.80;;;;;;5099954;28;20464;-84
2022/03/17 10:13:18;;;;;;;4.63;4.23;;;18.10;43.80;;;;;;5099792;28;20511;-84
2022/03/17 10:15:47;;;;;;;6.23;4.70;;;18.30;43.70;;;;;;5100349;28;20464;-84
2022/03/17 10:18:24;;;;;;;3.83;3.50;;;18.30;43.60;;;;;;5099812;28;20445;-84
2022/03/17 10:21:08;;;;;;;5.07;4.33;;;18.30;43.50;;;;;;5096497;28;20499;-84
2022/03/17 10:23:44;;;;;;;5.30;4.60;;;18.40;43.60;;;;;;5099766;28;20481;-84
2022/03/17 10:26:12;;;;;;;4.90;4.50;;;18.40;43.60;;;;;;5097134;28;20535;-84
2022/03/17 10:28:40;;;;;;;4.30;4.00;;;18.30;43.50;;;;;;5093503;28;20507;-86
2022/03/17 10:31:08;;;;;;;4.80;4.30;;;18.30;43.50;;;;;;5112900;28;20462;-87
2022/03/17 10:33:38;;;;;;;5.80;4.13;;;18.30;43.50;;;;;;5113458;28;20484;-86
2022/03/17 10:36:16;;;;;;;5.53;4.50;;;18.30;43.50;;;;;;5102818;28;20449;-84
2022/03/17 10:38:45;;;;;;;4.60;3.97;;;18.30;43.60;;;;;;5098738;28;20448;-84
2022/03/17 10:41:12;;;;;;;3.77;3.57;;;18.30;43.70;;;;;;5100069;28;20433;-84
2022/03/17 10:43:42;;;;;;;3.93;3.63;;;18.40;43.70;;;;;;5100487;28;20490;-84
2022/03/17 10:46:12;;;;;;;4.70;4.23;;;18.40;43.60;;;;;;5100057;28;20498;-84
2022/03/17 10:48:55;;;;;;;4.17;3.30;;;18.40;43.60;;;;;;5099636;28;20464;-84
2022/03/17 10:51:33;;;;;;;4.77;4.27;;;18.40;43.60;;;;;;5099553;28;20445;-84
2022/03/17 10:54:03;;;;;;;4.17;3.60;;;18.40;43.50;;;;;;5102385;28;20475;-83
2022/03/17 10:56:31;;;;;;;4.00;3.70;;;18.40;43.50;;;;;;5103129;28;20475;-84
2022/03/17 10:58:59;;;;;;;4.40;4.00;;;18.40;43.50;;;;;;5108980;28;20455;-83
2022/03/17 11:01:46;;;;;;;7.80;3.90;;;18.40;43.60;;;;;;5110716;28;20460;-84
2022/03/17 11:04:16;;;;;;;4.33;3.90;;;18.40;43.50;;;;;;5110799;28;20465;-84
2022/03/17 11:06:44;;;;;;;5.60;4.30;;;18.40;43.60;;;;;;5111004;28;20448;-84
2022/03/17 11:09:12;;;;;;;4.30;3.90;;;18.40;43.60;;;;;;5110445;28;20473;-84
2022/03/17 11:11:40;;;;;;;4.27;3.87;;;18.50;43.60;;;;;;5110271;28;20457;-84
2022/03/17 11:14:09;;;;;;;6.13;4.00;;;18.50;43.60;;;;;;5111195;28;20461;-84
2022/03/17 11:16:40;;;;;;;4.10;3.70;;;18.60;43.50;;;;;;5111084;28;20448;-84
2022/03/17 11:19:12;;;;;;;4.47;3.87;;;18.60;43.50;;;;;;5110147;28;20445;-84
2022/03/17 11:21:45;;;;;;;3.67;3.30;;;18.60;43.40;;;;;;5107054;28;20445;-84
2022/03/17 11:24:18;;;;;;;3.87;3.33;;;18.60;43.40;;;;;;5104980;28;20457;-84
2022/03/17 11:26:46;;;;;;;4.30;3.90;;;18.50;43.40;;;;;;5105403;28;20433;-85
2022/03/17 11:29:15;;;;;;;4.20;3.80;;;18.50;44.10;;;;;;5098764;28;20469;-84
2022/03/17 11:31:51;;;;;;;5.20;3.97;;;18.50;43.50;;;;;;5091251;28;20637;-84
2022/03/17 11:34:47;;;;;;;4.13;3.57;;;18.50;43.60;;;;;;5103213;28;20987;-84
2022/03/17 11:37:26;;;;;;;3.40;3.10;;;18.50;43.80;;;;;;5102588;28;20502;-84
2022/03/17 11:39:55;;;;;;;3.20;2.90;;;18.50;43.70;;;;;;5102285;28;20436;-84
2022/03/17 11:42:34;;;;;;;4.67;3.30;;;18.60;43.80;;;;;;5101160;28;20452;-84
2022/03/17 11:45:28;;;;;;;7.00;3.60;;;18.60;43.80;;;;;;5100849;28;20476;-84
2022/03/17 11:47:58;;;;;;;6.43;3.97;;;18.70;43.70;;;;;;5094414;28;20433;-84
2022/03/17 11:50:28;;;;;;;5.70;3.77;;;18.80;43.60;;;;;;5101773;28;20518;-84
2022/03/17 11:53:01;;;;;;;3.50;3.20;;;18.90;43.40;;;;;;5102135;28;20445;-84
2022/03/17 11:55:36;;;;;;;4.33;3.70;;;19.10;43.30;;;;;;5102283;28;20909;-84
2022/03/17 11:58:28;;;;;;;3.57;3.27;;;19.10;43.10;;;;;;5102222;28;20465;-84
2022/03/17 12:01:03;;;;;;;5.40;3.43;;;19.10;43.80;;;;;;5099715;28;20425;-84
2022/03/17 12:03:31;;;;;;;4.03;3.63;;;19.10;43.10;;;;;;5100785;28;20456;-84
2022/03/17 12:06:10;;;;;;;3.60;3.30;;;19.10;43.20;;;;;;5102679;28;20455;-84
2022/03/17 12:08:41;;;;;;;3.90;3.50;;;19.20;43.20;;;;;;5102321;28;20529;-84
2022/03/17 12:11:10;;;;;;;7.70;3.40;;;19.20;43.00;;;;;;5102237;28;20476;-84
2022/03/17 12:13:38;;;;;;;3.87;3.50;;;19.20;43.10;;;;;;5101757;28;20468;-84
2022/03/17 12:16:07;;;;;;;3.90;3.60;;;19.20;43.10;;;;;;5102314;28;20445;-84
2022/03/17 12:19:01;;;;;;;4.43;3.80;;;19.20;43.00;;;;;;5100846;28;20463;-84
2022/03/17 12:22:02;;;;;;;6.07;3.73;;;19.20;43.20;;;;;;5100005;28;20429;-83
2022/03/17 12:24:39;;;;;;;4.03;3.17;;;19.30;43.20;;;;;;5099443;28;20471;-84
2022/03/17 12:27:12;;;;;;;4.07;3.57;;;19.50;43.20;;;;;;5101772;28;20497;-84
2022/03/17 12:29:41;;;;;;;4.03;3.60;;;19.90;42.90;;;;;;5102348;28;20525;-84
2022/03/17 12:32:10;;;;;;;4.03;3.70;;;20.80;42.20;;;;;;5101502;28;20498;-84
2022/03/17 12:34:38;;;;;;;3.93;3.43;;;21.30;41.20;;;;;;5092771;28;20473;-84
2022/03/17 12:37:07;;;;;;;3.50;3.20;;;22.30;41.00;;;;;;5101063;28;20476;-84
2022/03/17 12:40:00;;;;;;;3.60;3.30;;;23.80;39.10;;;;;;5100521;28;20444;-84
2022/03/17 12:42:49;;;;;;;3.57;3.23;;;24.90;37.00;;;;;;5098796;28;20497;-86
2022/03/17 12:45:18;;;;;;;6.03;3.80;;;25.40;36.10;;;;;;5102738;28;20418;-88
2022/03/17 12:47:47;;;;;;;3.73;3.40;;;25.00;35.80;;;;;;5108775;28;20419;-87
2022/03/17 12:50:16;;;;;;;3.47;3.27;;;25.90;37.40;;;;;;5107772;28;20474;-88
2022/03/17 12:52:49;;;;;;;3.53;3.27;;;25.80;34.40;;;;;;5107764;28;20468;-88
2022/03/17 12:55:21;;;;;;;4.73;3.70;;;25.10;35.20;;;;;;5107565;28;20471;-87
2022/03/17 12:57:49;;;;;;;5.03;3.30;;;25.70;37.70;;;;;;5107793;28;20464;-87
2022/03/17 13:00:19;;;;;;;3.73;3.40;;;25.30;35.70;;;;;;5107574;28;20498;-87
2022/03/17 13:02:48;;;;;;;6.27;3.30;;;24.90;35.70;;;;;;5108256;28;20436;-88
2022/03/17 13:08:04;;;;;;;3.80;3.30;;;26.30;37.50;;;;;;5102967;28;20432;-84
2022/03/17 13:14:20;;;;;;;4.70;3.73;;;25.80;34.80;;;;;;5100743;28;20459;-86
2022/03/17 13:16:07;;;;;;;4.60;3.47;;;25.20;35.30;;;;;;5093031;28;20439;-85
2022/03/17 13:18:43;;;;;;;3.43;3.13;;;24.90;36.70;;;;;;5094284;28;20516;-85
2022/03/17 13:21:11;;;;;;;4.03;3.37;;;26.50;36.70;;;;;;5094509;28;20411;-85